createdAt,value
2018-07-11T00:02:00.686Z,18.30
2018-07-11T00:04:28.027Z,18.30
2018-07-11T00:06:55.355Z,18.30
2018-07-11T00:09:22.683Z,18.10
2018-07-11T00:11:50.028Z,18.20
2018-07-11T00:14:17.355Z,18.30
2018-07-11T00:16:50.400Z,18.20
2018-07-11T00:19:17.727Z,18.20
2018-07-11T00:21:45.070Z,18.20
2018-07-11T00:24:12.389Z,18.20
2018-07-11T00:26:39.728Z,18.20
2018-07-11T00:29:07.111Z,18.20
2018-07-11T00:31:34.454Z,18.20
2018-07-11T00:34:01.807Z,18.10
2018-07-11T00:36:29.137Z,18.10
2018-07-11T00:38:56.522Z,18.10
2018-07-11T00:41:23.885Z,18.10
2018-07-11T00:43:51.263Z,18.10
2018-07-11T00:46:18.615Z,18.10
2018-07-11T00:48:45.978Z,18.10
2018-07-11T00:51:13.363Z,18.10
2018-07-11T00:53:40.711Z,18.10
2018-07-11T00:56:08.049Z,18.00
2018-07-11T00:58:37.534Z,18.10
2018-07-11T01:01:10.632Z,18.00
2018-07-11T01:03:40.283Z,18.00
2018-07-11T01:06:07.737Z,18.10
2018-07-11T01:11:11.319Z,18.00
2018-07-11T01:13:40.120Z,18.00
2018-07-11T01:16:07.505Z,18.00
2018-07-11T01:18:34.908Z,18.00
2018-07-11T01:21:02.256Z,17.60
2018-07-11T01:23:29.600Z,18.00
2018-07-11T01:25:56.935Z,18.00
2018-07-11T01:28:24.289Z,18.00
2018-07-11T01:30:51.606Z,18.00
2018-07-11T01:33:18.947Z,18.00
2018-07-11T01:35:46.296Z,18.00
2018-07-11T01:38:13.629Z,17.90
2018-07-11T01:40:40.984Z,17.90
2018-07-11T01:43:08.355Z,17.90
2018-07-11T01:45:35.840Z,17.90
2018-07-11T01:48:03.210Z,17.90
2018-07-11T01:50:30.949Z,17.90
2018-07-11T01:52:59.331Z,17.90
2018-07-11T01:55:27.295Z,17.90
2018-07-11T01:57:56.282Z,17.90
2018-07-11T02:00:24.572Z,17.90
2018-07-11T02:02:51.923Z,17.90
2018-07-11T02:05:19.259Z,17.80
2018-07-11T02:07:46.623Z,17.80
2018-07-11T02:10:13.951Z,17.80
2018-07-11T02:12:42.154Z,17.80
2018-07-11T02:15:10.553Z,17.80
2018-07-11T02:17:38.329Z,17.70
2018-07-11T02:20:07.721Z,17.80
2018-07-11T02:25:34.758Z,17.80
2018-07-11T02:28:02.104Z,17.70
2018-07-11T02:30:29.495Z,17.70
2018-07-11T02:32:56.849Z,17.70
2018-07-11T02:35:24.200Z,17.70
2018-07-11T02:37:51.824Z,17.70
2018-07-11T02:40:19.167Z,17.70
2018-07-11T02:42:46.506Z,17.70
2018-07-11T02:45:13.853Z,17.70
2018-07-11T02:47:41.215Z,17.70
2018-07-11T02:50:08.600Z,17.70
2018-07-11T02:52:35.975Z,17.70
2018-07-11T02:55:03.310Z,17.70
2018-07-11T02:57:30.639Z,17.60
2018-07-11T02:59:57.998Z,17.60
2018-07-11T03:02:25.364Z,17.60
2018-07-11T03:04:52.711Z,17.60
2018-07-11T03:09:47.337Z,17.60
2018-07-11T03:12:14.663Z,17.60
2018-07-11T03:14:46.278Z,17.50
2018-07-11T03:17:13.639Z,17.50
2018-07-11T03:19:41.008Z,17.50
2018-07-11T03:22:08.361Z,17.50
2018-07-11T03:24:35.716Z,17.50
2018-07-11T03:27:03.068Z,17.40
2018-07-11T03:29:30.395Z,17.40
2018-07-11T03:31:57.729Z,17.40
2018-07-11T03:34:25.076Z,17.40
2018-07-11T03:36:52.417Z,17.30
2018-07-11T03:39:19.760Z,17.30
2018-07-11T03:41:47.118Z,17.30
2018-07-11T03:44:14.639Z,17.30
2018-07-11T03:46:41.966Z,17.30
2018-07-11T03:49:09.321Z,17.30
2018-07-11T03:51:36.662Z,17.30
2018-07-11T03:56:31.323Z,17.20
2018-07-11T03:58:58.656Z,17.20
2018-07-11T04:01:25.994Z,17.20
2018-07-11T04:03:53.319Z,17.20
2018-07-11T04:06:20.651Z,17.10
2018-07-11T04:08:47.976Z,17.20
2018-07-11T04:11:15.308Z,17.20
2018-07-11T04:13:42.647Z,17.20
2018-07-11T04:16:09.979Z,17.20
2018-07-11T04:18:37.447Z,17.20
2018-07-11T04:21:04.803Z,17.20
2018-07-11T04:23:32.171Z,17.20
2018-07-11T04:25:59.542Z,17.20
2018-07-11T04:28:28.063Z,17.20
2018-07-11T04:30:55.492Z,17.20
2018-07-11T04:33:22.885Z,17.20
2018-07-11T04:35:51.060Z,17.10
2018-07-11T04:38:18.400Z,17.20
2018-07-11T04:40:46.379Z,17.20
2018-07-11T04:43:13.938Z,17.20
2018-07-11T04:45:42.017Z,17.20
2018-07-11T04:48:09.347Z,17.20
2018-07-11T04:50:37.047Z,17.20
2018-07-11T04:53:06.840Z,17.30
2018-07-11T04:55:34.462Z,17.20
2018-07-11T04:58:01.803Z,17.30
2018-07-11T05:00:29.146Z,17.30
2018-07-11T05:02:56.782Z,17.40
2018-07-11T05:05:24.238Z,17.40
2018-07-11T05:07:51.591Z,17.40
2018-07-11T05:10:18.916Z,17.40
2018-07-11T05:12:46.263Z,17.50
2018-07-11T05:15:13.596Z,17.50
2018-07-11T05:17:40.931Z,17.50
2018-07-11T05:20:08.276Z,17.50
2018-07-11T05:22:35.599Z,17.60
2018-07-11T05:25:02.935Z,17.60
2018-07-11T05:27:30.263Z,17.60
2018-07-11T05:29:57.591Z,17.60
2018-07-11T05:32:24.922Z,17.70
2018-07-11T05:34:52.256Z,17.70
2018-07-11T05:37:19.638Z,17.70
2018-07-11T05:39:46.971Z,17.70
2018-07-11T05:42:14.314Z,18.60
2018-07-11T05:44:41.630Z,17.80
2018-07-11T05:47:08.963Z,17.80
2018-07-11T05:49:36.296Z,17.90
2018-07-11T05:52:03.921Z,17.90
2018-07-11T05:54:32.470Z,17.90
2018-07-11T05:57:00.109Z,18.00
2018-07-11T05:59:27.447Z,18.00
2018-07-11T06:01:54.837Z,18.00
2018-07-11T06:04:22.147Z,18.00
2018-07-11T06:06:49.947Z,18.10
2018-07-11T06:09:17.284Z,18.10
2018-07-11T06:11:44.606Z,18.20
2018-07-11T06:14:11.937Z,18.20
2018-07-11T06:16:39.304Z,18.20
2018-07-11T06:19:06.621Z,18.30
2018-07-11T06:21:33.949Z,18.30
2018-07-11T06:24:01.298Z,18.30
2018-07-11T06:26:28.660Z,18.30
2018-07-11T06:28:56.007Z,18.40
2018-07-11T06:31:23.361Z,18.40
2018-07-11T06:33:50.729Z,18.50
2018-07-11T06:36:18.101Z,18.50
2018-07-11T06:38:45.435Z,18.50
2018-07-11T06:41:12.985Z,18.50
2018-07-11T06:43:40.299Z,18.60
2018-07-11T06:46:07.628Z,18.60
2018-07-11T06:48:34.959Z,18.60
2018-07-11T06:51:02.303Z,18.60
2018-07-11T06:53:29.643Z,18.70
2018-07-11T06:55:57.025Z,18.70
2018-07-11T06:58:24.351Z,18.80
2018-07-11T07:00:51.802Z,18.80
2018-07-11T07:03:19.191Z,18.80
2018-07-11T07:05:46.526Z,18.80
2018-07-11T07:08:13.903Z,18.90
2018-07-11T07:10:41.293Z,18.90
2018-07-11T07:13:08.643Z,18.90
2018-07-11T07:15:35.964Z,18.90
2018-07-11T07:18:03.324Z,19.00
2018-07-11T07:20:30.676Z,19.00
2018-07-11T07:22:58.019Z,19.00
2018-07-11T07:25:25.424Z,19.00
2018-07-11T07:27:52.768Z,19.10
2018-07-11T07:30:20.106Z,19.10
2018-07-11T07:32:47.450Z,19.10
2018-07-11T07:35:14.774Z,19.20
2018-07-11T07:37:42.155Z,19.20
2018-07-11T07:40:09.489Z,19.20
2018-07-11T07:42:36.844Z,19.20
2018-07-11T07:47:37.280Z,19.30
2018-07-11T07:50:04.628Z,19.30
2018-07-11T07:52:31.995Z,19.30
2018-07-11T07:54:59.387Z,19.30
2018-07-11T07:57:27.700Z,19.40
2018-07-11T07:59:55.052Z,19.40
2018-07-11T08:02:22.428Z,19.40
2018-07-11T08:04:49.787Z,19.40
2018-07-11T08:07:17.254Z,19.40
2018-07-11T08:09:44.607Z,19.40
2018-07-11T08:12:11.963Z,19.40
2018-07-11T08:14:39.327Z,19.40
2018-07-11T08:17:06.675Z,19.40
2018-07-11T08:19:34.023Z,19.50
2018-07-11T08:22:12.799Z,19.50
2018-07-11T08:24:51.871Z,19.50
2018-07-11T08:28:00.609Z,19.50
2018-07-11T08:30:38.018Z,19.60
2018-07-11T08:33:17.702Z,19.60
2018-07-11T08:35:57.080Z,19.60
2018-07-11T08:38:35.718Z,19.70
2018-07-11T08:41:13.315Z,19.70
2018-07-11T08:44:03.056Z,19.70
2018-07-11T08:46:41.948Z,19.80
2018-07-11T08:52:26.939Z,19.80
2018-07-11T08:55:10.795Z,19.80
2018-07-11T08:59:53.284Z,20.10
2018-07-11T09:04:41.079Z,20.10
2018-07-11T09:07:27.074Z,20.10
2018-07-11T09:12:26.698Z,20.00
2018-07-11T09:17:14.475Z,20.10
2018-07-11T09:20:24.621Z,20.10
2018-07-11T09:23:04.758Z,20.10
2018-07-11T09:25:32.140Z,20.10
2018-07-11T09:27:59.511Z,20.10
2018-07-11T09:30:26.922Z,20.10
2018-07-11T09:32:54.236Z,20.10
2018-07-11T09:35:21.575Z,20.10
2018-07-11T09:37:48.911Z,20.10
2018-07-11T09:40:16.336Z,20.10
2018-07-11T09:43:15.103Z,20.10
2018-07-11T09:45:42.919Z,20.20
2018-07-11T09:48:10.284Z,20.30
2018-07-11T09:50:37.636Z,20.40
2018-07-11T09:53:05.317Z,20.50
2018-07-11T09:55:32.668Z,20.50
2018-07-11T09:58:00.053Z,20.50
2018-07-11T10:00:33.087Z,20.60
2018-07-11T10:03:00.447Z,20.60
2018-07-11T10:05:28.299Z,20.70
2018-07-11T10:07:55.697Z,20.80
2018-07-11T10:10:23.139Z,20.90
2018-07-11T10:12:50.482Z,21.00
2018-07-11T10:15:17.837Z,20.90
2018-07-11T10:17:45.220Z,21.00
2018-07-11T10:20:12.601Z,21.00
2018-07-11T10:22:39.981Z,21.10
2018-07-11T10:25:07.540Z,21.20
2018-07-11T10:27:34.915Z,21.20
2018-07-11T10:30:02.259Z,21.30
2018-07-11T10:32:29.807Z,21.30
2018-07-11T10:34:57.172Z,21.40
2018-07-11T10:37:24.511Z,21.40
2018-07-11T10:39:51.872Z,21.40
2018-07-11T10:42:19.204Z,21.40
2018-07-11T10:44:46.643Z,21.30
2018-07-11T10:47:14.276Z,21.30
2018-07-11T10:49:42.740Z,21.30
2018-07-11T10:52:10.075Z,21.30
2018-07-11T10:54:37.924Z,21.30
2018-07-11T10:57:05.255Z,21.30
2018-07-11T10:59:32.620Z,21.30
2018-07-11T11:02:00.136Z,21.40
2018-07-11T11:04:27.484Z,21.40
2018-07-11T11:06:54.839Z,21.50
2018-07-11T11:09:22.206Z,21.50
2018-07-11T11:11:49.607Z,21.50
2018-07-11T11:14:16.967Z,21.60
2018-07-11T11:16:44.355Z,21.60
2018-07-11T11:19:11.768Z,21.60
2018-07-11T11:21:39.129Z,21.60
2018-07-11T11:24:06.618Z,21.60
2018-07-11T11:26:33.978Z,21.60
2018-07-11T11:29:01.368Z,21.60
2018-07-11T11:31:28.720Z,21.60
2018-07-11T11:33:56.081Z,21.60
2018-07-11T11:36:23.449Z,21.60
2018-07-11T11:38:50.809Z,21.60
2018-07-11T11:41:18.179Z,21.60
2018-07-11T11:43:45.592Z,21.60
2018-07-11T11:46:12.989Z,21.50
2018-07-11T11:48:40.349Z,21.50
2018-07-11T11:51:07.707Z,21.40
2018-07-11T11:53:35.058Z,21.40
2018-07-11T11:56:02.405Z,21.40
2018-07-11T11:58:29.851Z,21.40
2018-07-11T12:00:57.215Z,21.40
2018-07-11T12:03:24.558Z,21.40
2018-07-11T12:05:51.894Z,21.50
2018-07-11T12:08:19.243Z,21.50
2018-07-11T12:10:46.614Z,21.50
2018-07-11T12:13:13.967Z,21.40
2018-07-11T12:15:41.316Z,21.50
2018-07-11T12:18:08.700Z,21.60
2018-07-11T12:20:36.055Z,21.70
2018-07-11T12:23:03.425Z,21.80
2018-07-11T12:25:30.765Z,22.00
2018-07-11T12:27:58.128Z,22.20
2018-07-11T12:30:25.495Z,22.50
2018-07-11T12:32:52.833Z,22.70
2018-07-11T12:35:20.184Z,22.90
2018-07-11T12:37:48.621Z,22.90
2018-07-11T12:40:15.987Z,23.00
2018-07-11T12:42:43.335Z,23.20
2018-07-11T12:45:10.700Z,23.30
2018-07-11T12:47:43.692Z,23.50
2018-07-11T12:50:11.877Z,23.50
2018-07-11T12:52:39.250Z,23.60
2018-07-11T12:55:06.616Z,23.50
2018-07-11T12:57:34.584Z,23.60
2018-07-11T13:00:01.925Z,23.60
2018-07-11T13:02:29.296Z,23.70
2018-07-11T13:04:56.659Z,23.70
2018-07-11T13:07:23.990Z,23.60
2018-07-11T13:09:51.361Z,23.60
2018-07-11T13:12:18.700Z,23.60
2018-07-11T13:14:46.068Z,23.70
2018-07-11T13:17:13.407Z,23.60
2018-07-11T13:19:40.768Z,23.50
2018-07-11T13:22:08.123Z,23.50
2018-07-11T13:24:35.462Z,23.30
2018-07-11T13:27:02.799Z,23.10
2018-07-11T13:29:30.160Z,23.10
2018-07-11T13:31:58.504Z,23.00
2018-07-11T13:34:25.862Z,22.90
2018-07-11T13:36:53.685Z,22.90
2018-07-11T13:39:22.134Z,22.90
2018-07-11T13:44:17.631Z,22.60
2018-07-11T13:46:45.327Z,22.40
2018-07-11T13:49:13.167Z,22.30
2018-07-11T13:51:40.543Z,22.30
2018-07-11T13:56:35.727Z,22.20
2018-07-11T13:59:03.264Z,22.10
2018-07-11T14:01:30.619Z,22.00
2018-07-11T14:03:58.058Z,22.00
2018-07-11T14:06:25.456Z,22.00
2018-07-11T14:08:52.993Z,22.00
2018-07-11T14:11:20.348Z,22.10
2018-07-11T14:13:47.702Z,22.10
2018-07-11T14:16:15.060Z,22.10
2018-07-11T14:18:42.803Z,22.00
2018-07-11T14:21:10.144Z,22.00
2018-07-11T14:23:39.006Z,22.00
2018-07-11T14:26:06.868Z,21.90
2018-07-11T14:28:34.444Z,22.00
2018-07-11T14:33:31.386Z,21.90
2018-07-11T14:35:59.292Z,21.80
2018-07-11T14:40:54.419Z,21.80
2018-07-11T14:43:22.723Z,21.80
2018-07-11T14:45:51.847Z,21.90
2018-07-11T14:48:19.160Z,21.90
2018-07-11T14:50:46.504Z,22.00
2018-07-11T14:53:14.276Z,21.90
2018-07-11T14:55:41.801Z,21.80
2018-07-11T14:58:09.209Z,21.90
2018-07-11T15:00:36.525Z,22.00
2018-07-11T15:03:04.075Z,22.10
2018-07-11T15:05:31.446Z,22.10
2018-07-11T15:07:59.179Z,22.20
2018-07-11T15:10:26.751Z,22.30
2018-07-11T15:12:54.136Z,22.40
2018-07-11T15:15:21.671Z,22.40
2018-07-11T15:17:49.058Z,22.40
2018-07-11T15:20:16.410Z,22.40
2018-07-11T15:22:43.790Z,22.30
2018-07-11T15:25:11.131Z,22.40
2018-07-11T15:27:38.507Z,22.30
2018-07-11T15:30:05.843Z,22.20
2018-07-11T15:32:33.472Z,22.30
2018-07-11T15:35:00.828Z,22.20
2018-07-11T15:37:28.176Z,22.20
2018-07-11T15:39:56.427Z,22.20
2018-07-11T15:42:23.778Z,22.30
2018-07-11T15:44:51.855Z,22.30
2018-07-11T15:47:21.713Z,22.30
2018-07-11T15:49:51.344Z,22.30
2018-07-11T15:52:19.970Z,22.30
2018-07-11T15:54:47.568Z,22.30
2018-07-11T15:57:33.099Z,22.30
2018-07-11T16:00:03.817Z,22.30
2018-07-11T16:02:31.155Z,22.40
2018-07-11T16:04:58.587Z,22.40
2018-07-11T16:07:28.134Z,22.40
2018-07-11T16:09:57.188Z,22.30
2018-07-11T16:12:25.125Z,22.30
2018-07-11T16:14:52.608Z,22.20
2018-07-11T16:17:20.880Z,22.20
2018-07-11T16:19:48.271Z,22.20
2018-07-11T16:22:15.699Z,22.20
2018-07-11T16:27:10.427Z,22.20
2018-07-11T16:29:37.792Z,22.30
2018-07-11T16:32:05.784Z,22.20
2018-07-11T16:34:33.159Z,22.10
2018-07-11T16:37:00.549Z,22.10
2018-07-11T16:39:27.966Z,22.00
2018-07-11T16:41:55.355Z,22.10
2018-07-11T16:44:22.728Z,22.00
2018-07-11T16:46:50.261Z,21.90
2018-07-11T16:49:17.685Z,21.80
2018-07-11T16:51:45.047Z,21.80
2018-07-11T16:54:12.796Z,21.80
2018-07-11T16:56:40.152Z,21.80
2018-07-11T16:59:09.333Z,21.80
2018-07-11T17:01:46.364Z,21.70
2018-07-11T17:04:13.739Z,21.70
2018-07-11T17:06:41.112Z,21.70
2018-07-11T17:09:08.895Z,21.60
2018-07-11T17:11:36.262Z,21.70
2018-07-11T17:14:04.555Z,21.60
2018-07-11T17:16:49.012Z,21.60
2018-07-11T17:19:25.637Z,21.60
2018-07-11T17:21:53.199Z,21.60
2018-07-11T17:24:21.527Z,21.50
2018-07-11T17:26:50.511Z,21.60
2018-07-11T17:29:22.946Z,21.50
2018-07-11T17:31:53.106Z,21.50
2018-07-11T17:34:21.297Z,21.50
2018-07-11T17:36:51.562Z,21.50
2018-07-11T17:39:18.935Z,21.40
2018-07-11T17:41:46.611Z,21.30
2018-07-11T17:44:14.893Z,21.20
2018-07-11T17:46:42.326Z,21.30
2018-07-11T17:49:15.231Z,21.30
2018-07-11T17:51:54.867Z,21.30
2018-07-11T17:54:27.420Z,21.30
2018-07-11T17:56:57.344Z,21.20
2018-07-11T17:59:40.177Z,21.20
2018-07-11T18:02:19.102Z,21.10
2018-07-11T18:05:59.056Z,21.10
2018-07-11T18:08:32.416Z,21.10
2018-07-11T18:10:59.971Z,21.00
2018-07-11T18:13:30.428Z,21.00
2018-07-11T18:17:04.482Z,21.00
2018-07-11T18:19:53.296Z,21.00
2018-07-11T18:22:46.203Z,20.80
2018-07-11T18:26:29.477Z,21.00
2018-07-11T18:29:10.005Z,21.00
2018-07-11T18:31:48.805Z,20.90
2018-07-11T18:35:31.209Z,20.80
2018-07-11T18:38:22.983Z,20.90
2018-07-11T18:40:57.505Z,20.80
2018-07-11T18:44:31.781Z,20.80
2018-07-11T18:47:13.058Z,20.80
2018-07-11T18:51:58.336Z,20.70
2018-07-11T18:54:36.679Z,20.70
2018-07-11T18:57:14.515Z,20.70
2018-07-11T18:59:53.302Z,20.70
2018-07-11T19:02:29.952Z,20.60
2018-07-11T19:05:06.923Z,20.50
2018-07-11T19:07:51.631Z,20.40
2018-07-11T19:10:31.429Z,20.40
2018-07-11T19:12:59.343Z,20.30
2018-07-11T19:15:39.028Z,20.20
2018-07-11T19:19:15.226Z,20.20
2018-07-11T19:23:58.717Z,20.20
2018-07-11T19:26:37.499Z,20.20
2018-07-11T19:30:09.877Z,20.20
2018-07-11T19:32:59.685Z,20.20
2018-07-11T19:37:42.270Z,20.20
2018-07-11T19:40:17.115Z,20.10
2018-07-11T19:43:54.431Z,20.10
2018-07-11T19:46:31.120Z,20.00
2018-07-11T19:49:10.651Z,20.00
2018-07-11T19:51:56.575Z,19.90
2018-07-11T19:54:34.753Z,20.00
2018-07-11T19:57:02.140Z,20.00
2018-07-11T19:59:29.531Z,20.00
2018-07-11T20:01:56.887Z,20.00
2018-07-11T20:04:24.323Z,20.00
2018-07-11T20:06:51.711Z,20.00
2018-07-11T20:09:19.052Z,19.90
2018-07-11T20:11:46.412Z,20.00
2018-07-11T20:14:13.750Z,19.90
2018-07-11T20:16:41.121Z,19.90
2018-07-11T20:19:08.504Z,19.90
2018-07-11T20:21:35.864Z,19.90
2018-07-11T20:24:03.274Z,19.90
2018-07-11T20:26:30.629Z,19.90
2018-07-11T20:28:58.011Z,19.90
2018-07-11T20:31:25.371Z,19.90
2018-07-11T20:33:52.723Z,19.90
2018-07-11T20:36:20.174Z,19.90
2018-07-11T20:38:47.587Z,19.90
2018-07-11T20:41:14.941Z,19.90
2018-07-11T20:43:42.291Z,19.90
2018-07-11T20:46:10.332Z,19.90
2018-07-11T20:48:38.604Z,19.90
2018-07-11T20:51:06.371Z,19.90
2018-07-11T20:53:33.710Z,19.90
2018-07-11T20:56:01.111Z,19.80
2018-07-11T20:59:38.524Z,19.80
2018-07-11T21:02:17.332Z,19.90
2018-07-11T21:07:00.912Z,19.80
2018-07-11T21:09:40.178Z,19.80
2018-07-11T21:14:22.079Z,19.80
2018-07-11T21:17:00.704Z,19.80
2018-07-11T21:19:28.063Z,19.80
2018-07-11T21:21:55.409Z,19.70
2018-07-11T21:24:22.795Z,19.70
2018-07-11T21:26:50.171Z,19.70
2018-07-11T21:31:44.847Z,19.60
2018-07-11T21:34:12.211Z,19.70
2018-07-11T21:36:39.559Z,19.60
2018-07-11T21:39:08.408Z,19.60
2018-07-11T21:41:35.746Z,19.60
2018-07-11T21:44:03.207Z,19.60
2018-07-11T21:46:30.686Z,19.60
2018-07-11T21:48:58.075Z,19.60
2018-07-11T21:51:25.427Z,19.60
2018-07-11T21:53:52.805Z,19.60
2018-07-11T21:56:20.209Z,19.60
2018-07-11T21:58:47.547Z,19.60
2018-07-11T22:01:15.732Z,19.60
2018-07-11T22:03:43.076Z,19.60
2018-07-11T22:06:10.478Z,19.50
2018-07-11T22:08:37.807Z,19.50
2018-07-11T22:11:05.167Z,19.50
2018-07-11T22:13:32.527Z,19.50
2018-07-11T22:15:59.874Z,19.50
2018-07-11T22:18:32.892Z,19.50
2018-07-11T22:21:00.042Z,19.50
2018-07-11T22:23:26.710Z,19.50
2018-07-11T22:25:53.099Z,19.40
2018-07-11T22:28:19.480Z,19.40
2018-07-11T22:30:45.894Z,19.40
2018-07-11T22:33:12.280Z,19.40
2018-07-11T22:35:38.664Z,19.40
2018-07-11T22:38:05.043Z,19.40
2018-07-11T22:40:31.438Z,19.40
2018-07-11T22:42:57.823Z,19.40
2018-07-11T22:45:24.203Z,19.30
2018-07-11T22:47:50.627Z,19.30
2018-07-11T22:50:17.039Z,19.40
2018-07-11T22:52:43.432Z,19.40
2018-07-11T22:55:09.811Z,19.30
2018-07-11T22:57:36.196Z,19.30
2018-07-11T23:00:02.584Z,19.30
2018-07-11T23:02:28.960Z,19.30
2018-07-11T23:04:55.337Z,19.30
2018-07-11T23:07:21.734Z,19.30
2018-07-11T23:09:48.128Z,19.30
2018-07-11T23:12:14.541Z,19.20
2018-07-11T23:14:40.925Z,19.30
2018-07-11T23:17:07.304Z,19.30
2018-07-11T23:19:33.686Z,19.30
2018-07-11T23:22:00.069Z,19.30
2018-07-11T23:24:26.461Z,19.30
2018-07-11T23:26:53.068Z,19.30
2018-07-11T23:29:19.523Z,19.30
2018-07-11T23:31:45.921Z,19.30
2018-07-11T23:34:12.304Z,19.20
2018-07-11T23:36:38.719Z,19.20
2018-07-11T23:39:06.220Z,19.30
2018-07-11T23:41:32.595Z,19.20
2018-07-11T23:43:58.980Z,19.20
2018-07-11T23:46:25.481Z,19.20
2018-07-11T23:48:51.935Z,19.20
2018-07-11T23:51:18.329Z,19.20
2018-07-11T23:53:44.723Z,19.20
2018-07-11T23:56:11.123Z,19.20
2018-07-11T23:58:37.499Z,19.20
